createdAt,value
2019-04-21T00:00:33.561Z,13.20
2019-04-21T00:03:13.166Z,13.10
2019-04-21T00:05:58.943Z,13.00
2019-04-21T00:08:41.596Z,12.90
2019-04-21T00:11:10.785Z,12.80
2019-04-21T00:13:31.325Z,12.90
2019-04-21T00:15:53.185Z,12.90
2019-04-21T00:18:20.989Z,12.80
2019-04-21T00:20:54.670Z,12.70
2019-04-21T00:23:37.482Z,12.60
2019-04-21T00:26:01.398Z,12.50
2019-04-21T00:28:42.365Z,12.40
2019-04-21T00:31:09.872Z,12.20
2019-04-21T00:33:28.012Z,12.20
2019-04-21T00:35:59.919Z,12.20
2019-04-21T00:38:49.084Z,12.30
2019-04-21T00:41:13.243Z,12.30
2019-04-21T00:43:38.905Z,12.40
2019-04-21T00:46:04.813Z,12.50
2019-04-21T00:48:47.569Z,12.40
2019-04-21T00:51:40.705Z,12.30
2019-04-21T00:54:06.905Z,12.30
2019-04-21T00:56:27.661Z,12.40
2019-04-21T00:58:59.864Z,12.30
2019-04-21T01:01:37.898Z,12.30
2019-04-21T01:04:10.137Z,12.30
2019-04-21T01:06:42.906Z,12.20
2019-04-21T01:09:02.676Z,12.00
2019-04-21T01:11:47.364Z,11.80
2019-04-21T01:14:12.027Z,11.80
2019-04-21T01:16:49.813Z,11.80
2019-04-21T01:19:12.107Z,11.90
2019-04-21T01:21:24.136Z,11.80
2019-04-21T01:23:55.698Z,11.80
2019-04-21T01:26:33.804Z,11.60
2019-04-21T01:29:11.925Z,11.50
2019-04-21T01:31:48.247Z,11.50
2019-04-21T01:34:20.633Z,11.50
2019-04-21T01:36:52.944Z,11.40
2019-04-21T01:39:30.813Z,11.40
2019-04-21T01:41:59.102Z,11.30
2019-04-21T01:44:38.768Z,11.20
2019-04-21T01:46:51.968Z,10.90
2019-04-21T01:49:19.194Z,10.80
2019-04-21T01:52:10.818Z,10.90
2019-04-21T01:54:43.551Z,10.90
2019-04-21T01:57:12.343Z,11.00
2019-04-21T01:59:39.576Z,11.00
2019-04-21T02:02:16.004Z,10.70
2019-04-21T02:04:52.277Z,10.60
2019-04-21T02:07:14.859Z,10.70
2019-04-21T02:09:49.211Z,10.70
2019-04-21T02:12:19.959Z,10.80
2019-04-21T02:15:06.298Z,10.80
2019-04-21T02:17:20.377Z,10.40
2019-04-21T02:19:46.213Z,10.20
2019-04-21T02:22:33.849Z,10.10
2019-04-21T02:24:58.041Z,10.10
2019-04-21T02:27:23.697Z,10.40
2019-04-21T02:29:55.154Z,10.30
2019-04-21T02:37:46.791Z,10.40
2019-04-21T02:40:11.569Z,10.40
2019-04-21T02:42:46.504Z,10.30
2019-04-21T02:45:17.096Z,10.30
2019-04-21T02:55:18.066Z,9.80
2019-04-21T02:57:59.412Z,9.60
2019-04-21T03:00:49.900Z,9.30
2019-04-21T03:06:15.411Z,8.90
2019-04-21T03:11:14.601Z,9.30
2019-04-21T03:14:01.048Z,9.30
2019-04-21T03:16:23.047Z,9.40
2019-04-21T03:19:01.846Z,9.40
2019-04-21T03:21:22.098Z,9.40
2019-04-21T03:23:53.638Z,9.40
2019-04-21T03:26:30.539Z,9.30
2019-04-21T03:28:54.542Z,9.30
2019-04-21T03:38:55.016Z,9.30
2019-04-21T03:41:32.257Z,9.20
2019-04-21T03:44:02.967Z,9.20
2019-04-21T03:49:04.954Z,9.10
2019-04-21T03:51:25.820Z,9.10
2019-04-21T03:54:07.872Z,9.10
2019-04-21T03:59:03.418Z,9.10
2019-04-21T04:01:50.979Z,8.80
2019-04-21T04:09:44.585Z,8.90
2019-04-21T04:12:26.392Z,8.80
2019-04-21T04:14:45.957Z,8.70
2019-04-21T04:19:44.785Z,8.30
2019-04-21T04:22:19.383Z,8.30
2019-04-21T04:25:07.894Z,8.20
2019-04-21T04:27:34.694Z,8.00
2019-04-21T04:29:50.683Z,8.00
2019-04-21T04:32:25.173Z,8.20
2019-04-21T04:35:02.135Z,8.30
2019-04-21T04:37:32.133Z,8.40
2019-04-21T04:40:10.675Z,8.40
2019-04-21T04:42:41.105Z,8.50
2019-04-21T04:45:28.266Z,8.60
2019-04-21T04:47:43.074Z,8.40
2019-04-21T04:50:15.399Z,8.30
2019-04-21T04:55:22.101Z,8.30
2019-04-21T04:57:59.117Z,8.30
2019-04-21T05:00:28.726Z,8.50
2019-04-21T05:02:56.420Z,8.90
2019-04-21T05:07:57.682Z,10.40
2019-04-21T05:10:29.509Z,11.40
2019-04-21T05:12:50.701Z,12.30
2019-04-21T05:15:23.419Z,13.30
2019-04-21T05:18:00.823Z,14.30
2019-04-21T05:20:24.022Z,15.20
2019-04-21T05:23:04.607Z,16.00
2019-04-21T05:25:23.386Z,16.90
2019-04-21T05:27:54.036Z,17.70
2019-04-21T05:30:45.465Z,18.50
2019-04-21T05:33:32.188Z,19.20
2019-04-21T05:36:20.438Z,19.80
2019-04-21T05:39:10.725Z,20.70
2019-04-21T05:41:34.644Z,21.70
2019-04-21T05:44:27.962Z,21.80
2019-04-21T05:47:01.156Z,21.80
2019-04-21T05:49:29.556Z,22.30
2019-04-21T05:52:00.368Z,22.80
2019-04-21T05:57:05.987Z,20.80
2019-04-21T05:59:39.999Z,21.10
2019-04-21T06:02:18.573Z,21.00
2019-04-21T06:05:07.190Z,21.10
2019-04-21T06:07:23.068Z,20.40
2019-04-21T06:12:38.194Z,19.40
2019-04-21T06:15:03.824Z,18.60
2019-04-21T06:17:36.853Z,19.90
2019-04-21T06:20:10.350Z,22.30
2019-04-21T06:22:50.654Z,23.90
2019-04-21T06:25:45.580Z,25.40
2019-04-21T06:28:30.556Z,23.20
2019-04-21T06:33:39.219Z,26.80
2019-04-21T06:36:23.994Z,25.40
2019-04-21T06:38:59.503Z,25.70
2019-04-21T06:51:38.964Z,21.50
2019-04-21T06:54:23.921Z,21.20
2019-04-21T06:57:22.086Z,20.80
2019-04-21T06:59:09.395Z,23.60
2019-04-21T07:07:04.600Z,23.00
2019-04-21T07:09:52.829Z,21.10
2019-04-21T07:12:19.178Z,19.60
2019-04-21T07:14:52.741Z,21.10
2019-04-21T07:17:24.345Z,21.40
2019-04-21T07:19:57.423Z,22.30
2019-04-21T07:22:24.947Z,22.30
2019-04-21T07:25:00.415Z,22.00
2019-04-21T07:27:30.186Z,20.00
2019-04-21T07:29:58.543Z,20.40
2019-04-21T07:32:50.055Z,20.20
2019-04-21T07:35:06.034Z,21.00
2019-04-21T07:37:30.511Z,22.50
2019-04-21T07:40:07.906Z,23.80
2019-04-21T07:42:35.519Z,23.30
2019-04-21T07:45:05.129Z,22.10
2019-04-21T07:47:39.539Z,22.00
2019-04-21T07:50:14.871Z,21.80
2019-04-21T07:57:44.092Z,22.70
2019-04-21T08:00:29.358Z,21.80
2019-04-21T08:02:53.983Z,20.50
2019-04-21T08:05:26.181Z,23.10
2019-04-21T08:07:55.826Z,24.50
2019-04-21T08:10:31.290Z,24.80
2019-04-21T08:12:54.315Z,24.60
2019-04-21T08:15:44.220Z,22.30
2019-04-21T08:17:59.595Z,22.90
2019-04-21T08:20:28.522Z,23.40
2019-04-21T08:23:06.235Z,23.00
2019-04-21T08:25:35.251Z,24.10
2019-04-21T08:28:05.723Z,21.80
2019-04-21T08:30:47.822Z,23.50
2019-04-21T08:33:19.134Z,24.50
2019-04-21T08:38:10.363Z,25.50
2019-04-21T08:40:40.744Z,26.20
2019-04-21T08:43:12.629Z,26.70
2019-04-21T08:45:41.519Z,27.10
2019-04-21T08:48:10.566Z,26.70
2019-04-21T08:50:41.564Z,28.30
2019-04-21T08:53:32.027Z,25.70
2019-04-21T08:55:58.688Z,25.20
2019-04-21T09:01:06.079Z,26.90
2019-04-21T09:03:44.726Z,26.90
2019-04-21T09:06:22.541Z,25.70
2019-04-21T09:08:45.760Z,25.90
2019-04-21T09:11:12.665Z,25.00
2019-04-21T09:13:50.399Z,24.50
2019-04-21T09:16:18.803Z,23.70
2019-04-21T09:18:45.642Z,24.20
2019-04-21T09:21:22.488Z,24.70
2019-04-21T09:23:54.281Z,27.40
2019-04-21T09:26:25.233Z,28.70
2019-04-21T09:28:44.770Z,29.20
2019-04-21T09:31:05.302Z,27.40
2019-04-21T09:33:46.754Z,28.50
2019-04-21T09:36:14.314Z,25.30
2019-04-21T09:38:42.419Z,24.10
2019-04-21T09:41:15.487Z,25.20
2019-04-21T09:43:46.820Z,25.80
2019-04-21T09:46:11.826Z,25.20
2019-04-21T09:48:50.104Z,24.10
2019-04-21T09:51:11.179Z,23.90
2019-04-21T09:53:43.227Z,24.90
2019-04-21T09:56:14.754Z,26.10
2019-04-21T09:58:46.159Z,26.50
2019-04-21T10:01:22.775Z,26.30
2019-04-21T10:03:52.179Z,26.20
2019-04-21T10:06:19.132Z,24.00
2019-04-21T10:08:51.551Z,23.60
2019-04-21T10:11:20.760Z,23.70
2019-04-21T10:13:48.826Z,23.60
2019-04-21T10:16:36.389Z,23.80
2019-04-21T10:19:05.108Z,23.20
2019-04-21T10:21:36.402Z,23.00
2019-04-21T10:24:06.283Z,22.90
2019-04-21T10:26:35.591Z,22.90
2019-04-21T10:29:11.524Z,22.90
2019-04-21T10:31:34.962Z,22.40
2019-04-21T10:34:09.425Z,22.60
2019-04-21T10:36:39.057Z,22.70
2019-04-21T10:39:07.828Z,23.10
2019-04-21T10:41:37.339Z,22.40
2019-04-21T10:44:07.237Z,22.40
2019-04-21T10:46:36.906Z,23.00
2019-04-21T10:49:06.454Z,23.10
2019-04-21T10:51:35.250Z,23.40
2019-04-21T10:54:04.082Z,23.60
2019-04-21T10:56:37.975Z,23.70
2019-04-21T10:59:03.005Z,23.40
2019-04-21T11:01:38.907Z,23.60
2019-04-21T11:04:23.591Z,23.40
2019-04-21T11:06:48.818Z,23.20
2019-04-21T11:09:17.886Z,23.40
2019-04-21T11:11:49.563Z,23.70
2019-04-21T11:14:17.802Z,24.10
2019-04-21T11:16:48.018Z,24.10
2019-04-21T11:19:17.979Z,23.80
2019-04-21T11:21:47.095Z,24.20
2019-04-21T11:24:16.260Z,23.70
2019-04-21T11:26:47.631Z,23.80
2019-04-21T11:29:17.080Z,23.40
2019-04-21T11:31:47.208Z,23.60
2019-04-21T11:34:16.161Z,23.60
2019-04-21T11:36:48.063Z,24.10
2019-04-21T11:39:29.437Z,24.20
2019-04-21T11:41:49.823Z,24.10
2019-04-21T11:44:21.482Z,24.00
2019-04-21T11:46:49.024Z,24.40
2019-04-21T11:49:17.955Z,24.50
2019-04-21T11:51:46.980Z,24.40
2019-04-21T11:54:16.956Z,24.60
2019-04-21T11:56:45.748Z,24.60
2019-04-21T11:59:15.531Z,24.50
2019-04-21T12:01:45.578Z,24.60
2019-04-21T12:04:15.968Z,24.50
2019-04-21T12:06:47.625Z,24.50
2019-04-21T12:09:15.070Z,24.40
2019-04-21T12:11:45.218Z,24.60
2019-04-21T12:14:19.993Z,24.90
2019-04-21T12:16:48.799Z,24.50
2019-04-21T12:19:18.665Z,24.70
2019-04-21T12:21:58.884Z,24.90
2019-04-21T12:24:17.669Z,25.10
2019-04-21T12:26:46.497Z,24.90
2019-04-21T12:29:16.542Z,25.00
2019-04-21T12:32:05.670Z,24.60
2019-04-21T12:34:34.449Z,25.20
2019-04-21T12:37:04.503Z,24.80
2019-04-21T12:39:34.769Z,24.90
2019-04-21T12:42:04.669Z,24.80
2019-04-21T12:44:33.633Z,24.90
2019-04-21T12:47:03.614Z,25.10
2019-04-21T12:49:33.611Z,25.00
2019-04-21T12:52:03.737Z,25.20
2019-04-21T12:54:33.363Z,24.90
2019-04-21T12:57:03.366Z,25.10
2019-04-21T12:59:32.895Z,24.70
2019-04-21T13:02:03.272Z,24.70
2019-04-21T13:04:33.568Z,25.00
2019-04-21T13:07:03.670Z,25.50
2019-04-21T13:09:33.841Z,25.50
2019-04-21T13:12:02.763Z,25.20
2019-04-21T13:14:31.613Z,25.40
2019-04-21T13:17:01.354Z,25.50
2019-04-21T13:19:31.416Z,25.40
2019-04-21T13:22:01.443Z,24.80
2019-04-21T13:24:31.706Z,24.70
2019-04-21T13:27:03.223Z,24.60
2019-04-21T13:29:32.214Z,24.90
2019-04-21T13:32:08.778Z,24.80
2019-04-21T13:34:37.920Z,25.20
2019-04-21T13:37:09.818Z,25.30
2019-04-21T13:40:09.683Z,25.00
2019-04-21T13:42:31.439Z,24.90
2019-04-21T13:44:59.245Z,25.10
2019-04-21T13:47:28.255Z,25.30
2019-04-21T13:49:59.897Z,25.30
2019-04-21T13:52:28.904Z,25.10
2019-04-21T13:54:57.930Z,25.30
2019-04-21T13:57:32.525Z,24.90
2019-04-21T14:00:01.436Z,24.90
2019-04-21T14:02:30.953Z,24.80
2019-04-21T14:05:01.108Z,24.90
2019-04-21T14:07:30.374Z,25.00
2019-04-21T14:10:03.347Z,25.30
2019-04-21T14:12:29.708Z,25.40
2019-04-21T14:14:59.996Z,25.50
2019-04-21T14:17:28.898Z,25.50
2019-04-21T14:19:57.555Z,25.10
2019-04-21T14:22:26.810Z,25.20
2019-04-21T14:24:56.273Z,25.40
2019-04-21T14:27:26.227Z,25.20
2019-04-21T14:29:55.758Z,25.20
2019-04-21T14:32:24.579Z,25.10
2019-04-21T14:34:54.068Z,25.20
2019-04-21T14:37:22.886Z,25.40
2019-04-21T14:39:59.847Z,25.50
2019-04-21T14:42:22.175Z,25.80
2019-04-21T14:44:51.184Z,25.60
2019-04-21T14:47:40.015Z,25.40
2019-04-21T14:50:28.177Z,25.30
2019-04-21T14:53:07.754Z,25.50
2019-04-21T14:55:39.408Z,25.60
2019-04-21T14:58:09.436Z,25.40
2019-04-21T15:00:55.710Z,25.40
2019-04-21T15:03:25.824Z,25.10
2019-04-21T15:05:55.738Z,25.00
2019-04-21T15:08:25.008Z,25.10
2019-04-21T15:10:56.962Z,25.30
2019-04-21T15:13:25.917Z,25.40
2019-04-21T15:15:56.150Z,25.10
2019-04-21T15:18:26.103Z,25.00
2019-04-21T15:20:55.287Z,25.00
2019-04-21T15:23:26.375Z,25.20
2019-04-21T15:25:54.383Z,25.30
2019-04-21T15:28:23.129Z,25.00
2019-04-21T15:30:52.412Z,25.00
2019-04-21T15:33:22.295Z,25.20
2019-04-21T15:35:51.271Z,25.00
2019-04-21T15:38:20.163Z,24.90
2019-04-21T15:40:56.065Z,25.00
2019-04-21T15:43:22.389Z,25.10
2019-04-21T15:45:51.093Z,25.00
2019-04-21T15:48:20.202Z,24.90
2019-04-21T15:50:50.316Z,24.80
2019-04-21T15:53:21.631Z,24.70
2019-04-21T15:55:52.882Z,24.70
2019-04-21T15:58:24.520Z,24.70
2019-04-21T16:00:58.580Z,24.60
2019-04-21T16:03:28.923Z,24.60
2019-04-21T16:05:59.292Z,24.90
2019-04-21T16:08:29.029Z,25.10
2019-04-21T16:11:02.013Z,24.90
2019-04-21T16:13:28.093Z,24.90
2019-04-21T16:15:58.675Z,24.90
2019-04-21T16:18:27.980Z,25.00
2019-04-21T16:20:57.766Z,24.90
2019-04-21T16:23:26.663Z,24.80
2019-04-21T16:25:56.918Z,24.80
2019-04-21T16:28:26.855Z,24.90
2019-04-21T16:30:56.223Z,24.80
2019-04-21T16:33:25.162Z,24.80
2019-04-21T16:35:53.893Z,24.80
2019-04-21T16:38:23.678Z,24.60
2019-04-21T16:40:57.728Z,24.40
2019-04-21T16:43:22.912Z,24.50
2019-04-21T16:45:52.901Z,24.50
2019-04-21T16:48:21.615Z,24.40
2019-04-21T16:50:50.223Z,24.30
2019-04-21T16:53:35.611Z,24.30
2019-04-21T16:56:06.944Z,24.30
2019-04-21T16:58:38.856Z,24.30
2019-04-21T17:01:15.921Z,24.30
2019-04-21T17:03:42.552Z,24.10
2019-04-21T17:06:11.355Z,24.00
2019-04-21T17:08:40.928Z,23.90
2019-04-21T17:11:17.557Z,23.80
2019-04-21T17:13:40.094Z,23.80
2019-04-21T17:16:36.474Z,23.80
2019-04-21T17:18:51.353Z,23.70
2019-04-21T17:21:11.104Z,23.70
2019-04-21T17:23:41.158Z,23.60
2019-04-21T17:26:11.022Z,23.60
2019-04-21T17:28:40.653Z,23.50
2019-04-21T17:31:10.831Z,23.40
2019-04-21T17:33:39.659Z,23.40
2019-04-21T17:36:09.240Z,23.30
2019-04-21T17:38:37.927Z,23.30
2019-04-21T17:41:19.384Z,23.20
2019-04-21T17:43:37.425Z,23.20
2019-04-21T17:46:09.243Z,23.10
2019-04-21T17:48:40.628Z,23.00
2019-04-21T17:51:11.842Z,22.90
2019-04-21T17:54:00.710Z,22.80
2019-04-21T17:56:55.122Z,22.70
2019-04-21T17:59:28.190Z,22.60
2019-04-21T18:01:53.359Z,22.50
2019-04-21T18:04:18.365Z,22.40
2019-04-21T18:07:02.406Z,22.30
2019-04-21T18:09:47.095Z,22.30
2019-04-21T18:12:08.049Z,22.20
2019-04-21T18:14:22.312Z,22.00
2019-04-21T18:16:53.323Z,21.90
2019-04-21T18:19:27.780Z,21.80
2019-04-21T18:22:03.018Z,21.70
2019-04-21T18:24:40.709Z,21.50
2019-04-21T18:27:05.678Z,21.40
2019-04-21T18:29:33.945Z,21.30
2019-04-21T18:32:02.910Z,21.20
2019-04-21T18:34:42.822Z,21.00
2019-04-21T18:37:34.297Z,20.90
2019-04-21T18:40:06.888Z,20.80
2019-04-21T18:43:30.814Z,20.60
2019-04-21T18:46:11.563Z,20.50
2019-04-21T18:48:31.544Z,20.50
2019-04-21T18:51:10.508Z,20.40
2019-04-21T18:53:57.213Z,20.30
2019-04-21T18:56:20.871Z,20.10
2019-04-21T18:58:56.343Z,19.80
2019-04-21T19:01:29.323Z,19.80
2019-04-21T19:04:05.388Z,19.80
2019-04-21T19:06:51.702Z,19.80
2019-04-21T19:09:35.927Z,19.60
2019-04-21T19:12:05.207Z,19.40
2019-04-21T19:17:29.095Z,19.20
2019-04-21T19:19:44.154Z,19.00
2019-04-21T19:22:04.632Z,18.80
2019-04-21T19:24:55.625Z,18.50
2019-04-21T19:27:45.508Z,18.40
2019-04-21T19:30:33.241Z,18.10
2019-04-21T19:32:55.841Z,17.90
2019-04-21T19:35:11.109Z,17.70
2019-04-21T19:37:55.180Z,17.40
2019-04-21T19:40:37.024Z,17.30
2019-04-21T19:43:07.007Z,17.50
2019-04-21T19:45:39.657Z,17.40
2019-04-21T19:48:18.171Z,17.30
2019-04-21T19:50:50.245Z,17.20
2019-04-21T19:53:32.908Z,17.00
2019-04-21T19:55:47.898Z,16.80
2019-04-21T19:58:31.226Z,16.60
2019-04-21T20:00:59.727Z,16.50
2019-04-21T20:03:36.687Z,16.40
2019-04-21T20:06:16.890Z,16.30
2019-04-21T20:08:56.439Z,16.20
2019-04-21T20:11:23.834Z,16.10
2019-04-21T20:14:44.802Z,16.10
2019-04-21T20:16:42.789Z,16.10
2019-04-21T20:19:01.451Z,16.10
2019-04-21T20:21:31.411Z,16.00
2019-04-21T20:24:06.144Z,15.80
2019-04-21T20:27:04.714Z,15.70
2019-04-21T20:29:44.737Z,15.70
2019-04-21T20:32:21.690Z,15.60
2019-04-21T20:34:50.943Z,15.50
2019-04-21T20:37:19.122Z,15.40
2019-04-21T20:39:45.590Z,15.50
2019-04-21T20:42:24.932Z,15.60
2019-04-21T20:45:38.393Z,15.60
2019-04-21T20:48:10.468Z,15.50
2019-04-21T20:51:00.330Z,15.60
2019-04-21T20:53:31.317Z,15.80
2019-04-21T20:55:53.081Z,15.90
2019-04-21T20:58:34.203Z,15.90
2019-04-21T21:01:25.705Z,15.90
2019-04-21T21:03:45.828Z,15.90
2019-04-21T21:06:16.103Z,15.80
2019-04-21T21:08:50.396Z,15.80
2019-04-21T21:11:23.126Z,15.80
2019-04-21T21:13:59.203Z,15.70
2019-04-21T21:16:41.897Z,15.60
2019-04-21T21:19:23.912Z,15.60
2019-04-21T21:21:45.919Z,15.70
2019-04-21T21:24:22.233Z,15.80
2019-04-21T21:26:58.160Z,15.70
2019-04-21T21:29:31.456Z,15.60
2019-04-21T21:32:08.531Z,15.50
2019-04-21T21:34:41.158Z,15.40
2019-04-21T21:37:21.185Z,15.30
2019-04-21T21:39:55.102Z,15.40
2019-04-21T21:42:07.590Z,15.60
2019-04-21T21:44:40.754Z,15.80
2019-04-21T21:47:32.139Z,15.70
2019-04-21T21:49:57.825Z,15.80
2019-04-21T21:52:29.758Z,15.90
2019-04-21T21:54:49.803Z,15.70
2019-04-21T21:57:26.426Z,15.70
2019-04-21T22:00:04.674Z,15.80
2019-04-21T22:02:43.798Z,15.90
2019-04-21T22:05:16.049Z,15.90
2019-04-21T22:07:49.888Z,15.70
2019-04-21T22:10:25.265Z,15.40
2019-04-21T22:13:03.016Z,15.30
2019-04-21T22:15:33.808Z,15.30
2019-04-21T22:18:27.335Z,15.20
2019-04-21T22:20:56.488Z,15.10
2019-04-21T22:23:26.067Z,15.00
2019-04-21T22:25:51.483Z,14.90
2019-04-21T22:28:25.526Z,14.70
2019-04-21T22:30:56.885Z,14.80
2019-04-21T22:33:38.662Z,14.70
2019-04-21T22:36:23.369Z,14.70
2019-04-21T22:38:51.875Z,14.60
2019-04-21T22:41:25.386Z,14.50
2019-04-21T22:43:51.640Z,14.30
2019-04-21T22:46:24.462Z,14.20
2019-04-21T22:49:00.909Z,14.10
2019-04-21T22:51:38.326Z,14.10
2019-04-21T22:54:12.775Z,13.90
2019-04-21T22:56:50.461Z,13.80
2019-04-21T22:59:20.963Z,13.70
2019-04-21T23:01:51.905Z,13.70
2019-04-21T23:04:36.820Z,13.70
2019-04-21T23:07:10.042Z,13.60
2019-04-21T23:09:56.078Z,13.70
2019-04-21T23:12:29.685Z,13.50
2019-04-21T23:15:13.034Z,13.40
2019-04-21T23:17:54.232Z,13.20
2019-04-21T23:20:29.734Z,13.10
2019-04-21T23:23:05.075Z,13.10
2019-04-21T23:25:31.800Z,13.20
2019-04-21T23:28:09.150Z,13.20
2019-04-21T23:30:52.932Z,13.30
2019-04-21T23:33:04.960Z,13.10
2019-04-21T23:36:19.605Z,13.00
2019-04-21T23:38:50.102Z,12.90
2019-04-21T23:41:17.369Z,12.90
2019-04-21T23:43:55.396Z,13.00
2019-04-21T23:46:34.706Z,13.00
2019-04-21T23:49:20.098Z,12.90
2019-04-21T23:51:45.295Z,12.80
2019-04-21T23:54:15.684Z,12.80
2019-04-21T23:56:47.614Z,12.80
2019-04-21T23:59:17.994Z,12.70
